sensor_id;sensor_type;location;lat;lon;timestamp;P1;durP1;ratioP1;P2;durP2;ratioP2
83659;SDS011;73632;50.808;3.422;2024-03-02T00:00:35;2.90;;;0.68;;
83659;SDS011;73632;50.808;3.422;2024-03-02T00:03:01;1.38;;;0.65;;
83659;SDS011;73632;50.808;3.422;2024-03-02T00:05:27;2.92;;;0.70;;
83659;SDS011;73632;50.808;3.422;2024-03-02T00:07:53;0.70;;;0.50;;
83659;SDS011;73632;50.808;3.422;2024-03-02T00:10:27;2.00;;;0.73;;
83659;SDS011;73632;50.808;3.422;2024-03-02T00:13:02;1.98;;;0.70;;
83659;SDS011;73632;50.808;3.422;2024-03-02T00:15:45;1.42;;;0.93;;
83659;SDS011;73632;50.808;3.422;2024-03-02T00:18:26;2.55;;;0.63;;
83659;SDS011;73632;50.808;3.422;2024-03-02T00:20:55;0.77;;;0.57;;
83659;SDS011;73632;50.808;3.422;2024-03-02T00:23:22;1.63;;;0.55;;
83659;SDS011;73632;50.808;3.422;2024-03-02T00:25:52;1.42;;;0.50;;
83659;SDS011;73632;50.808;3.422;2024-03-02T00:33:36;2.25;;;0.57;;
83659;SDS011;73632;50.808;3.422;2024-03-02T00:36:05;4.88;;;0.85;;
83659;SDS011;73632;50.808;3.422;2024-03-02T00:38:31;0.93;;;0.52;;
83659;SDS011;73632;50.808;3.422;2024-03-02T00:41:04;4.68;;;0.80;;
83659;SDS011;73632;50.808;3.422;2024-03-02T00:43:40;2.28;;;0.70;;
83659;SDS011;73632;50.808;3.422;2024-03-02T00:46:11;3.13;;;0.90;;
83659;SDS011;73632;50.808;3.422;2024-03-02T00:48:37;0.93;;;0.63;;
83659;SDS011;73632;50.808;3.422;2024-03-02T00:51:03;3.10;;;1.42;;
83659;SDS011;73632;50.808;3.422;2024-03-02T00:53:32;3.83;;;1.00;;
83659;SDS011;73632;50.808;3.422;2024-03-02T00:55:58;4.10;;;0.90;;
83659;SDS011;73632;50.808;3.422;2024-03-02T00:58:24;1.58;;;0.90;;
83659;SDS011;73632;50.808;3.422;2024-03-02T01:00:50;2.70;;;0.98;;
83659;SDS011;73632;50.808;3.422;2024-03-02T01:03:15;1.83;;;1.00;;
83659;SDS011;73632;50.808;3.422;2024-03-02T01:05:41;2.20;;;1.00;;
83659;SDS011;73632;50.808;3.422;2024-03-02T01:08:07;1.90;;;1.00;;
83659;SDS011;73632;50.808;3.422;2024-03-02T01:10:33;4.95;;;1.10;;
83659;SDS011;73632;50.808;3.422;2024-03-02T01:13:01;1.40;;;0.80;;
83659;SDS011;73632;50.808;3.422;2024-03-02T01:15:27;2.30;;;1.00;;
83659;SDS011;73632;50.808;3.422;2024-03-02T01:17:52;5.93;;;1.02;;
83659;SDS011;73632;50.808;3.422;2024-03-02T01:20:18;1.17;;;0.88;;
83659;SDS011;73632;50.808;3.422;2024-03-02T01:22:43;3.10;;;1.10;;
83659;SDS011;73632;50.808;3.422;2024-03-02T01:25:09;4.15;;;1.25;;
83659;SDS011;73632;50.808;3.422;2024-03-02T01:27:34;3.08;;;1.10;;
83659;SDS011;73632;50.808;3.422;2024-03-02T01:30:00;2.03;;;1.10;;
83659;SDS011;73632;50.808;3.422;2024-03-02T01:32:25;1.73;;;0.88;;
83659;SDS011;73632;50.808;3.422;2024-03-02T01:34:51;3.80;;;1.33;;
83659;SDS011;73632;50.808;3.422;2024-03-02T01:37:16;2.70;;;1.20;;
83659;SDS011;73632;50.808;3.422;2024-03-02T01:39:41;3.00;;;1.40;;
83659;SDS011;73632;50.808;3.422;2024-03-02T01:42:07;8.65;;;1.35;;
83659;SDS011;73632;50.808;3.422;2024-03-02T01:44:32;5.55;;;1.83;;
83659;SDS011;73632;50.808;3.422;2024-03-02T01:46:58;4.60;;;1.58;;
83659;SDS011;73632;50.808;3.422;2024-03-02T01:49:23;4.20;;;1.77;;
83659;SDS011;73632;50.808;3.422;2024-03-02T01:51:49;6.30;;;1.75;;
83659;SDS011;73632;50.808;3.422;2024-03-02T01:54:14;3.78;;;1.50;;
83659;SDS011;73632;50.808;3.422;2024-03-02T01:56:40;6.47;;;2.00;;
83659;SDS011;73632;50.808;3.422;2024-03-02T01:59:05;8.65;;;2.22;;
83659;SDS011;73632;50.808;3.422;2024-03-02T02:01:31;5.72;;;1.95;;
83659;SDS011;73632;50.808;3.422;2024-03-02T02:03:57;6.78;;;2.38;;
83659;SDS011;73632;50.808;3.422;2024-03-02T02:06:22;6.22;;;2.10;;
83659;SDS011;73632;50.808;3.422;2024-03-02T02:08:47;4.68;;;1.85;;
83659;SDS011;73632;50.808;3.422;2024-03-02T02:11:16;14.15;;;2.20;;
83659;SDS011;73632;50.808;3.422;2024-03-02T02:13:42;3.08;;;1.60;;
83659;SDS011;73632;50.808;3.422;2024-03-02T02:16:07;7.25;;;2.20;;
83659;SDS011;73632;50.808;3.422;2024-03-02T02:18:33;7.07;;;2.30;;
83659;SDS011;73632;50.808;3.422;2024-03-02T02:20:59;7.20;;;2.35;;
83659;SDS011;73632;50.808;3.422;2024-03-02T02:23:24;8.10;;;2.28;;
83659;SDS011;73632;50.808;3.422;2024-03-02T02:25:50;6.53;;;1.88;;
83659;SDS011;73632;50.808;3.422;2024-03-02T02:28:15;6.75;;;2.05;;
83659;SDS011;73632;50.808;3.422;2024-03-02T02:30:41;5.15;;;1.90;;
83659;SDS011;73632;50.808;3.422;2024-03-02T02:33:07;10.38;;;2.10;;
83659;SDS011;73632;50.808;3.422;2024-03-02T02:35:33;2.50;;;1.50;;
83659;SDS011;73632;50.808;3.422;2024-03-02T02:37:58;5.03;;;1.63;;
83659;SDS011;73632;50.808;3.422;2024-03-02T02:40:24;3.63;;;1.30;;
83659;SDS011;73632;50.808;3.422;2024-03-02T02:42:50;8.63;;;2.33;;
83659;SDS011;73632;50.808;3.422;2024-03-02T02:45:17;8.23;;;1.70;;
83659;SDS011;73632;50.808;3.422;2024-03-02T02:47:42;4.28;;;1.60;;
83659;SDS011;73632;50.808;3.422;2024-03-02T02:50:09;4.78;;;1.90;;
83659;SDS011;73632;50.808;3.422;2024-03-02T02:52:38;2.75;;;1.55;;
83659;SDS011;73632;50.808;3.422;2024-03-02T02:55:06;6.85;;;1.50;;
83659;SDS011;73632;50.808;3.422;2024-03-02T02:57:33;7.80;;;1.85;;
83659;SDS011;73632;50.808;3.422;2024-03-02T03:00:07;6.82;;;1.70;;
83659;SDS011;73632;50.808;3.422;2024-03-02T03:02:41;6.85;;;1.63;;
83659;SDS011;73632;50.808;3.422;2024-03-02T03:05:11;5.65;;;1.65;;
83659;SDS011;73632;50.808;3.422;2024-03-02T03:07:39;5.72;;;1.20;;
83659;SDS011;73632;50.808;3.422;2024-03-02T03:10:05;5.32;;;1.48;;
83659;SDS011;73632;50.808;3.422;2024-03-02T03:12:31;5.60;;;1.60;;
83659;SDS011;73632;50.808;3.422;2024-03-02T03:14:57;4.85;;;1.30;;
83659;SDS011;73632;50.808;3.422;2024-03-02T03:17:23;2.78;;;1.27;;
83659;SDS011;73632;50.808;3.422;2024-03-02T03:19:49;2.92;;;1.40;;
83659;SDS011;73632;50.808;3.422;2024-03-02T03:22:14;6.90;;;1.35;;
83659;SDS011;73632;50.808;3.422;2024-03-02T03:24:40;6.78;;;1.40;;
83659;SDS011;73632;50.808;3.422;2024-03-02T03:27:06;3.75;;;1.48;;
83659;SDS011;73632;50.808;3.422;2024-03-02T03:29:31;4.68;;;1.23;;
83659;SDS011;73632;50.808;3.422;2024-03-02T03:31:57;4.32;;;1.20;;
83659;SDS011;73632;50.808;3.422;2024-03-02T03:34:22;5.82;;;1.30;;
83659;SDS011;73632;50.808;3.422;2024-03-02T03:36:48;7.63;;;1.80;;
83659;SDS011;73632;50.808;3.422;2024-03-02T03:39:13;6.32;;;1.70;;
83659;SDS011;73632;50.808;3.422;2024-03-02T03:41:40;6.40;;;1.73;;
83659;SDS011;73632;50.808;3.422;2024-03-02T03:44:05;4.00;;;1.08;;
83659;SDS011;73632;50.808;3.422;2024-03-02T03:46:31;6.53;;;1.50;;
83659;SDS011;73632;50.808;3.422;2024-03-02T03:48:56;5.55;;;1.38;;
83659;SDS011;73632;50.808;3.422;2024-03-02T03:51:22;8.70;;;1.80;;
83659;SDS011;73632;50.808;3.422;2024-03-02T03:53:50;3.00;;;1.00;;
83659;SDS011;73632;50.808;3.422;2024-03-02T03:56:15;6.15;;;1.73;;
83659;SDS011;73632;50.808;3.422;2024-03-02T03:58:40;7.20;;;1.60;;
83659;SDS011;73632;50.808;3.422;2024-03-02T04:01:06;6.60;;;1.33;;
83659;SDS011;73632;50.808;3.422;2024-03-02T04:03:31;8.98;;;1.80;;
83659;SDS011;73632;50.808;3.422;2024-03-02T04:05:57;10.88;;;2.03;;
83659;SDS011;73632;50.808;3.422;2024-03-02T04:08:22;7.43;;;1.50;;
83659;SDS011;73632;50.808;3.422;2024-03-02T04:10:48;9.30;;;1.77;;
83659;SDS011;73632;50.808;3.422;2024-03-02T04:13:13;5.45;;;1.50;;
83659;SDS011;73632;50.808;3.422;2024-03-02T04:15:39;8.30;;;1.98;;
83659;SDS011;73632;50.808;3.422;2024-03-02T04:18:05;4.72;;;1.63;;
83659;SDS011;73632;50.808;3.422;2024-03-02T04:20:31;8.82;;;1.80;;
83659;SDS011;73632;50.808;3.422;2024-03-02T04:22:56;7.15;;;2.03;;
83659;SDS011;73632;50.808;3.422;2024-03-02T04:25:22;7.88;;;2.30;;
83659;SDS011;73632;50.808;3.422;2024-03-02T04:27:47;8.48;;;3.13;;
83659;SDS011;73632;50.808;3.422;2024-03-02T04:30:12;9.13;;;3.28;;
83659;SDS011;73632;50.808;3.422;2024-03-02T04:32:38;9.10;;;2.60;;
83659;SDS011;73632;50.808;3.422;2024-03-02T04:35:04;9.45;;;2.25;;
83659;SDS011;73632;50.808;3.422;2024-03-02T04:37:31;13.10;;;2.67;;
83659;SDS011;73632;50.808;3.422;2024-03-02T04:39:58;9.45;;;2.30;;
83659;SDS011;73632;50.808;3.422;2024-03-02T04:42:23;9.10;;;2.03;;
83659;SDS011;73632;50.808;3.422;2024-03-02T04:44:49;8.05;;;2.13;;
83659;SDS011;73632;50.808;3.422;2024-03-02T04:47:15;11.25;;;2.15;;
83659;SDS011;73632;50.808;3.422;2024-03-02T04:49:40;8.68;;;1.95;;
83659;SDS011;73632;50.808;3.422;2024-03-02T04:52:06;11.15;;;2.75;;
83659;SDS011;73632;50.808;3.422;2024-03-02T04:54:31;9.38;;;2.00;;
83659;SDS011;73632;50.808;3.422;2024-03-02T04:56:57;11.70;;;1.70;;
83659;SDS011;73632;50.808;3.422;2024-03-02T04:59:22;5.85;;;2.13;;
83659;SDS011;73632;50.808;3.422;2024-03-02T05:01:48;9.73;;;2.25;;
83659;SDS011;73632;50.808;3.422;2024-03-02T05:04:13;7.85;;;1.98;;
83659;SDS011;73632;50.808;3.422;2024-03-02T05:06:39;8.38;;;2.78;;
83659;SDS011;73632;50.808;3.422;2024-03-02T05:09:08;14.93;;;2.75;;
83659;SDS011;73632;50.808;3.422;2024-03-02T05:11:34;11.20;;;2.75;;
83659;SDS011;73632;50.808;3.422;2024-03-02T05:14:02;9.93;;;2.42;;
83659;SDS011;73632;50.808;3.422;2024-03-02T05:16:28;12.50;;;2.80;;
83659;SDS011;73632;50.808;3.422;2024-03-02T05:18:54;12.50;;;2.88;;
83659;SDS011;73632;50.808;3.422;2024-03-02T05:21:19;8.98;;;2.10;;
83659;SDS011;73632;50.808;3.422;2024-03-02T05:23:45;8.13;;;2.15;;
83659;SDS011;73632;50.808;3.422;2024-03-02T05:26:10;11.85;;;2.00;;
83659;SDS011;73632;50.808;3.422;2024-03-02T05:28:38;11.75;;;2.35;;
83659;SDS011;73632;50.808;3.422;2024-03-02T05:31:04;9.32;;;2.03;;
83659;SDS011;73632;50.808;3.422;2024-03-02T05:33:30;7.88;;;2.08;;
83659;SDS011;73632;50.808;3.422;2024-03-02T05:35:56;7.25;;;2.15;;
83659;SDS011;73632;50.808;3.422;2024-03-02T05:38:22;15.95;;;2.85;;
83659;SDS011;73632;50.808;3.422;2024-03-02T05:40:47;12.75;;;1.88;;
83659;SDS011;73632;50.808;3.422;2024-03-02T05:43:13;11.15;;;2.42;;
83659;SDS011;73632;50.808;3.422;2024-03-02T05:45:39;11.27;;;2.78;;
83659;SDS011;73632;50.808;3.422;2024-03-02T05:48:05;16.98;;;2.38;;
83659;SDS011;73632;50.808;3.422;2024-03-02T05:50:32;9.75;;;1.55;;
83659;SDS011;73632;50.808;3.422;2024-03-02T05:52:58;5.15;;;1.60;;
83659;SDS011;73632;50.808;3.422;2024-03-02T05:55:24;7.18;;;1.60;;
83659;SDS011;73632;50.808;3.422;2024-03-02T05:57:49;6.20;;;1.60;;
83659;SDS011;73632;50.808;3.422;2024-03-02T06:00:28;13.25;;;2.00;;
83659;SDS011;73632;50.808;3.422;2024-03-02T06:02:53;14.77;;;2.40;;
83659;SDS011;73632;50.808;3.422;2024-03-02T06:05:19;14.88;;;2.10;;
83659;SDS011;73632;50.808;3.422;2024-03-02T06:07:44;11.65;;;2.78;;
83659;SDS011;73632;50.808;3.422;2024-03-02T06:10:10;9.32;;;2.13;;
83659;SDS011;73632;50.808;3.422;2024-03-02T06:12:36;7.82;;;1.92;;
83659;SDS011;73632;50.808;3.422;2024-03-02T06:15:01;8.02;;;2.33;;
83659;SDS011;73632;50.808;3.422;2024-03-02T06:17:27;6.80;;;1.83;;
83659;SDS011;73632;50.808;3.422;2024-03-02T06:19:52;6.30;;;1.40;;
83659;SDS011;73632;50.808;3.422;2024-03-02T06:22:17;8.93;;;2.05;;
83659;SDS011;73632;50.808;3.422;2024-03-02T06:24:44;8.40;;;2.03;;
83659;SDS011;73632;50.808;3.422;2024-03-02T06:27:09;7.63;;;2.00;;
83659;SDS011;73632;50.808;3.422;2024-03-02T06:29:35;3.88;;;1.45;;
83659;SDS011;73632;50.808;3.422;2024-03-02T06:32:00;10.35;;;1.60;;
83659;SDS011;73632;50.808;3.422;2024-03-02T06:34:26;10.35;;;1.77;;
83659;SDS011;73632;50.808;3.422;2024-03-02T06:36:51;7.97;;;1.70;;
83659;SDS011;73632;50.808;3.422;2024-03-02T06:39:16;11.35;;;1.67;;
83659;SDS011;73632;50.808;3.422;2024-03-02T06:41:42;11.75;;;1.48;;
83659;SDS011;73632;50.808;3.422;2024-03-02T06:44:07;9.25;;;1.40;;
83659;SDS011;73632;50.808;3.422;2024-03-02T06:46:33;6.78;;;2.03;;
83659;SDS011;73632;50.808;3.422;2024-03-02T06:48:58;11.60;;;2.30;;
83659;SDS011;73632;50.808;3.422;2024-03-02T06:51:24;6.90;;;1.10;;
83659;SDS011;73632;50.808;3.422;2024-03-02T06:53:51;6.55;;;1.42;;
83659;SDS011;73632;50.808;3.422;2024-03-02T06:56:16;8.00;;;1.70;;
83659;SDS011;73632;50.808;3.422;2024-03-02T06:58:41;4.75;;;1.92;;
83659;SDS011;73632;50.808;3.422;2024-03-02T07:01:08;7.40;;;1.90;;
83659;SDS011;73632;50.808;3.422;2024-03-02T07:03:33;14.63;;;2.20;;
83659;SDS011;73632;50.808;3.422;2024-03-02T07:05:58;8.20;;;2.33;;
83659;SDS011;73632;50.808;3.422;2024-03-02T07:08:24;7.75;;;2.40;;
83659;SDS011;73632;50.808;3.422;2024-03-02T07:10:49;10.30;;;2.28;;
83659;SDS011;73632;50.808;3.422;2024-03-02T07:13:15;9.23;;;1.90;;
83659;SDS011;73632;50.808;3.422;2024-03-02T07:15:40;9.45;;;2.42;;
83659;SDS011;73632;50.808;3.422;2024-03-02T07:18:32;7.55;;;1.65;;
83659;SDS011;73632;50.808;3.422;2024-03-02T07:20:58;8.20;;;1.63;;
83659;SDS011;73632;50.808;3.422;2024-03-02T07:23:25;7.28;;;1.58;;
83659;SDS011;73632;50.808;3.422;2024-03-02T07:25:55;7.95;;;1.80;;
83659;SDS011;73632;50.808;3.422;2024-03-02T07:28:22;6.68;;;1.60;;
83659;SDS011;73632;50.808;3.422;2024-03-02T07:30:57;12.73;;;2.00;;
83659;SDS011;73632;50.808;3.422;2024-03-02T07:33:24;10.48;;;2.35;;
83659;SDS011;73632;50.808;3.422;2024-03-02T07:35:49;9.18;;;2.17;;
83659;SDS011;73632;50.808;3.422;2024-03-02T07:38:14;3.83;;;1.13;;
83659;SDS011;73632;50.808;3.422;2024-03-02T07:40:40;9.20;;;1.45;;
83659;SDS011;73632;50.808;3.422;2024-03-02T07:43:05;11.27;;;1.67;;
83659;SDS011;73632;50.808;3.422;2024-03-02T07:45:31;9.40;;;1.50;;
83659;SDS011;73632;50.808;3.422;2024-03-02T07:47:56;9.90;;;1.48;;
83659;SDS011;73632;50.808;3.422;2024-03-02T07:50:22;7.88;;;1.52;;
83659;SDS011;73632;50.808;3.422;2024-03-02T07:52:47;5.93;;;1.70;;
83659;SDS011;73632;50.808;3.422;2024-03-02T07:55:13;8.38;;;1.33;;
83659;SDS011;73632;50.808;3.422;2024-03-02T07:57:38;9.23;;;1.55;;
83659;SDS011;73632;50.808;3.422;2024-03-02T08:00:05;9.02;;;1.98;;
83659;SDS011;73632;50.808;3.422;2024-03-02T08:02:34;4.90;;;1.20;;
83659;SDS011;73632;50.808;3.422;2024-03-02T08:05:00;7.85;;;1.90;;
83659;SDS011;73632;50.808;3.422;2024-03-02T08:07:26;6.72;;;1.40;;
83659;SDS011;73632;50.808;3.422;2024-03-02T08:09:51;12.02;;;2.45;;
83659;SDS011;73632;50.808;3.422;2024-03-02T08:12:17;12.52;;;2.17;;
83659;SDS011;73632;50.808;3.422;2024-03-02T08:14:44;9.90;;;2.20;;
83659;SDS011;73632;50.808;3.422;2024-03-02T08:17:10;10.95;;;2.10;;
83659;SDS011;73632;50.808;3.422;2024-03-02T08:19:36;9.80;;;1.95;;
83659;SDS011;73632;50.808;3.422;2024-03-02T08:22:02;12.02;;;2.40;;
83659;SDS011;73632;50.808;3.422;2024-03-02T08:24:28;10.48;;;1.92;;
83659;SDS011;73632;50.808;3.422;2024-03-02T08:26:53;15.32;;;3.13;;
83659;SDS011;73632;50.808;3.422;2024-03-02T08:29:19;11.07;;;2.35;;
83659;SDS011;73632;50.808;3.422;2024-03-02T08:31:44;11.88;;;3.22;;
83659;SDS011;73632;50.808;3.422;2024-03-02T08:34:10;8.52;;;2.28;;
83659;SDS011;73632;50.808;3.422;2024-03-02T08:36:35;13.13;;;2.28;;
83659;SDS011;73632;50.808;3.422;2024-03-02T08:39:01;19.08;;;3.00;;
83659;SDS011;73632;50.808;3.422;2024-03-02T08:41:28;17.92;;;2.67;;
83659;SDS011;73632;50.808;3.422;2024-03-02T08:43:53;16.98;;;2.00;;
83659;SDS011;73632;50.808;3.422;2024-03-02T08:46:19;12.68;;;2.53;;
83659;SDS011;73632;50.808;3.422;2024-03-02T08:48:44;14.45;;;2.25;;
83659;SDS011;73632;50.808;3.422;2024-03-02T08:51:10;13.73;;;2.50;;
83659;SDS011;73632;50.808;3.422;2024-03-02T08:53:36;15.10;;;2.92;;
83659;SDS011;73632;50.808;3.422;2024-03-02T08:56:01;12.15;;;2.45;;
83659;SDS011;73632;50.808;3.422;2024-03-02T08:58:27;12.25;;;2.10;;
83659;SDS011;73632;50.808;3.422;2024-03-02T09:00:52;8.88;;;1.60;;
83659;SDS011;73632;50.808;3.422;2024-03-02T09:03:18;7.32;;;1.48;;
83659;SDS011;73632;50.808;3.422;2024-03-02T09:05:43;12.38;;;1.90;;
83659;SDS011;73632;50.808;3.422;2024-03-02T09:08:09;9.65;;;1.67;;
83659;SDS011;73632;50.808;3.422;2024-03-02T09:10:34;8.57;;;1.90;;
83659;SDS011;73632;50.808;3.422;2024-03-02T09:12:59;9.68;;;1.48;;
83659;SDS011;73632;50.808;3.422;2024-03-02T09:15:25;10.40;;;1.63;;
83659;SDS011;73632;50.808;3.422;2024-03-02T09:17:50;14.73;;;2.35;;
83659;SDS011;73632;50.808;3.422;2024-03-02T09:20:16;11.45;;;2.50;;
83659;SDS011;73632;50.808;3.422;2024-03-02T09:22:41;10.63;;;1.85;;
83659;SDS011;73632;50.808;3.422;2024-03-02T09:25:07;7.30;;;1.63;;
83659;SDS011;73632;50.808;3.422;2024-03-02T09:27:36;9.95;;;2.00;;
83659;SDS011;73632;50.808;3.422;2024-03-02T09:30:02;7.38;;;1.42;;
83659;SDS011;73632;50.808;3.422;2024-03-02T09:32:30;7.22;;;1.98;;
83659;SDS011;73632;50.808;3.422;2024-03-02T09:34:56;15.80;;;2.00;;
83659;SDS011;73632;50.808;3.422;2024-03-02T09:37:21;13.35;;;2.85;;
83659;SDS011;73632;50.808;3.422;2024-03-02T09:39:46;12.90;;;1.90;;
83659;SDS011;73632;50.808;3.422;2024-03-02T09:42:12;8.75;;;1.70;;
83659;SDS011;73632;50.808;3.422;2024-03-02T09:44:37;11.63;;;2.05;;
83659;SDS011;73632;50.808;3.422;2024-03-02T09:47:04;10.00;;;2.03;;
83659;SDS011;73632;50.808;3.422;2024-03-02T09:49:30;7.35;;;1.80;;
83659;SDS011;73632;50.808;3.422;2024-03-02T09:51:56;11.77;;;1.63;;
83659;SDS011;73632;50.808;3.422;2024-03-02T09:54:22;10.10;;;2.03;;
83659;SDS011;73632;50.808;3.422;2024-03-02T09:56:47;11.60;;;1.92;;
83659;SDS011;73632;50.808;3.422;2024-03-02T09:59:13;17.15;;;2.08;;
83659;SDS011;73632;50.808;3.422;2024-03-02T10:01:55;8.10;;;1.85;;
83659;SDS011;73632;50.808;3.422;2024-03-02T10:04:21;9.82;;;2.08;;
83659;SDS011;73632;50.808;3.422;2024-03-02T10:06:48;7.88;;;1.60;;
83659;SDS011;73632;50.808;3.422;2024-03-02T10:09:13;6.47;;;1.55;;
83659;SDS011;73632;50.808;3.422;2024-03-02T10:11:52;13.52;;;1.75;;
83659;SDS011;73632;50.808;3.422;2024-03-02T10:14:17;12.73;;;1.70;;
83659;SDS011;73632;50.808;3.422;2024-03-02T10:16:43;6.28;;;1.65;;
83659;SDS011;73632;50.808;3.422;2024-03-02T10:19:19;10.40;;;1.80;;
83659;SDS011;73632;50.808;3.422;2024-03-02T10:21:46;6.55;;;1.67;;
83659;SDS011;73632;50.808;3.422;2024-03-02T10:24:12;7.55;;;1.50;;
83659;SDS011;73632;50.808;3.422;2024-03-02T10:26:38;9.18;;;1.50;;
83659;SDS011;73632;50.808;3.422;2024-03-02T10:29:04;13.05;;;1.77;;
83659;SDS011;73632;50.808;3.422;2024-03-02T10:31:29;4.75;;;1.10;;
83659;SDS011;73632;50.808;3.422;2024-03-02T10:33:55;8.85;;;1.55;;
83659;SDS011;73632;50.808;3.422;2024-03-02T10:36:21;6.50;;;1.55;;
83659;SDS011;73632;50.808;3.422;2024-03-02T10:38:47;10.30;;;1.65;;
83659;SDS011;73632;50.808;3.422;2024-03-02T10:41:23;10.43;;;1.63;;
83659;SDS011;73632;50.808;3.422;2024-03-02T10:43:51;14.07;;;1.83;;
83659;SDS011;73632;50.808;3.422;2024-03-02T10:46:20;7.32;;;1.77;;
83659;SDS011;73632;50.808;3.422;2024-03-02T10:48:47;7.75;;;1.77;;
83659;SDS011;73632;50.808;3.422;2024-03-02T10:51:14;12.43;;;2.25;;
83659;SDS011;73632;50.808;3.422;2024-03-02T10:53:40;7.50;;;1.67;;
83659;SDS011;73632;50.808;3.422;2024-03-02T10:56:05;5.05;;;1.48;;
83659;SDS011;73632;50.808;3.422;2024-03-02T10:58:34;5.90;;;1.30;;
83659;SDS011;73632;50.808;3.422;2024-03-02T11:01:04;6.88;;;1.23;;
83659;SDS011;73632;50.808;3.422;2024-03-02T11:03:33;8.23;;;1.52;;
83659;SDS011;73632;50.808;3.422;2024-03-02T11:06:00;7.68;;;1.55;;
83659;SDS011;73632;50.808;3.422;2024-03-02T11:08:31;9.93;;;1.90;;
83659;SDS011;73632;50.808;3.422;2024-03-02T11:11:01;8.65;;;1.88;;
83659;SDS011;73632;50.808;3.422;2024-03-02T11:13:36;12.82;;;2.72;;
83659;SDS011;73632;50.808;3.422;2024-03-02T11:16:16;12.38;;;3.13;;
83659;SDS011;73632;50.808;3.422;2024-03-02T11:18:55;16.05;;;2.67;;
83659;SDS011;73632;50.808;3.422;2024-03-02T11:21:20;13.27;;;2.30;;
83659;SDS011;73632;50.808;3.422;2024-03-02T11:23:47;14.20;;;2.10;;
83659;SDS011;73632;50.808;3.422;2024-03-02T11:26:16;10.18;;;1.83;;
83659;SDS011;73632;50.808;3.422;2024-03-02T11:31:11;5.20;;;1.52;;
83659;SDS011;73632;50.808;3.422;2024-03-02T11:33:36;11.52;;;1.90;;
83659;SDS011;73632;50.808;3.422;2024-03-02T11:36:02;9.98;;;1.73;;
83659;SDS011;73632;50.808;3.422;2024-03-02T11:38:29;9.30;;;1.73;;
83659;SDS011;73632;50.808;3.422;2024-03-02T11:40:55;11.57;;;1.95;;
83659;SDS011;73632;50.808;3.422;2024-03-02T11:43:21;10.90;;;2.20;;
83659;SDS011;73632;50.808;3.422;2024-03-02T11:45:48;9.38;;;1.95;;
83659;SDS011;73632;50.808;3.422;2024-03-02T11:48:15;11.77;;;1.70;;
83659;SDS011;73632;50.808;3.422;2024-03-02T11:50:49;9.82;;;2.05;;
83659;SDS011;73632;50.808;3.422;2024-03-02T11:53:15;9.52;;;1.20;;
83659;SDS011;73632;50.808;3.422;2024-03-02T11:55:42;12.32;;;1.77;;
83659;SDS011;73632;50.808;3.422;2024-03-02T11:58:13;15.20;;;2.03;;
83659;SDS011;73632;50.808;3.422;2024-03-02T12:00:42;7.72;;;1.67;;
83659;SDS011;73632;50.808;3.422;2024-03-02T12:03:08;5.75;;;1.23;;
83659;SDS011;73632;50.808;3.422;2024-03-02T12:05:37;7.25;;;1.60;;
83659;SDS011;73632;50.808;3.422;2024-03-02T12:08:03;16.30;;;1.67;;
83659;SDS011;73632;50.808;3.422;2024-03-02T12:10:30;8.63;;;1.45;;
83659;SDS011;73632;50.808;3.422;2024-03-02T12:12:57;12.57;;;1.80;;
83659;SDS011;73632;50.808;3.422;2024-03-02T12:15:26;10.05;;;2.03;;
83659;SDS011;73632;50.808;3.422;2024-03-02T12:17:56;6.53;;;1.50;;
83659;SDS011;73632;50.808;3.422;2024-03-02T12:20:23;12.70;;;1.42;;
83659;SDS011;73632;50.808;3.422;2024-03-02T12:22:53;12.73;;;1.55;;
83659;SDS011;73632;50.808;3.422;2024-03-02T12:25:20;8.55;;;1.33;;
83659;SDS011;73632;50.808;3.422;2024-03-02T12:27:46;9.40;;;1.45;;
83659;SDS011;73632;50.808;3.422;2024-03-02T12:30:14;10.52;;;1.52;;
83659;SDS011;73632;50.808;3.422;2024-03-02T12:32:40;7.10;;;1.60;;
83659;SDS011;73632;50.808;3.422;2024-03-02T12:35:06;6.63;;;1.70;;
83659;SDS011;73632;50.808;3.422;2024-03-02T12:37:31;9.57;;;1.52;;
83659;SDS011;73632;50.808;3.422;2024-03-02T12:39:57;7.10;;;1.60;;
83659;SDS011;73632;50.808;3.422;2024-03-02T12:42:23;10.30;;;1.80;;
83659;SDS011;73632;50.808;3.422;2024-03-02T12:44:51;7.25;;;1.65;;
83659;SDS011;73632;50.808;3.422;2024-03-02T12:47:19;4.72;;;1.30;;
83659;SDS011;73632;50.808;3.422;2024-03-02T12:49:45;3.35;;;1.13;;
83659;SDS011;73632;50.808;3.422;2024-03-02T12:52:12;7.93;;;1.63;;
83659;SDS011;73632;50.808;3.422;2024-03-02T12:54:38;6.93;;;1.85;;
83659;SDS011;73632;50.808;3.422;2024-03-02T12:57:03;8.48;;;2.10;;
83659;SDS011;73632;50.808;3.422;2024-03-02T12:59:29;5.80;;;1.80;;
83659;SDS011;73632;50.808;3.422;2024-03-02T13:01:56;7.22;;;1.52;;
83659;SDS011;73632;50.808;3.422;2024-03-02T13:04:26;7.85;;;1.27;;
83659;SDS011;73632;50.808;3.422;2024-03-02T13:06:53;10.15;;;1.58;;
83659;SDS011;73632;50.808;3.422;2024-03-02T13:09:21;8.00;;;2.28;;
83659;SDS011;73632;50.808;3.422;2024-03-02T13:11:46;6.40;;;1.80;;
83659;SDS011;73632;50.808;3.422;2024-03-02T13:14:12;3.67;;;1.35;;
83659;SDS011;73632;50.808;3.422;2024-03-02T13:16:38;2.92;;;1.27;;
83659;SDS011;73632;50.808;3.422;2024-03-02T13:19:07;5.40;;;1.10;;
83659;SDS011;73632;50.808;3.422;2024-03-02T13:21:38;4.82;;;1.42;;
83659;SDS011;73632;50.808;3.422;2024-03-02T13:24:04;6.75;;;1.48;;
83659;SDS011;73632;50.808;3.422;2024-03-02T13:26:30;14.70;;;2.00;;
83659;SDS011;73632;50.808;3.422;2024-03-02T13:28:56;7.32;;;1.63;;
83659;SDS011;73632;50.808;3.422;2024-03-02T13:31:21;4.68;;;1.30;;
83659;SDS011;73632;50.808;3.422;2024-03-02T13:33:47;6.90;;;1.45;;
83659;SDS011;73632;50.808;3.422;2024-03-02T13:36:13;5.93;;;1.85;;
83659;SDS011;73632;50.808;3.422;2024-03-02T13:38:38;3.58;;;1.40;;
83659;SDS011;73632;50.808;3.422;2024-03-02T13:41:03;5.10;;;1.40;;
83659;SDS011;73632;50.808;3.422;2024-03-02T13:43:29;5.20;;;1.70;;
83659;SDS011;73632;50.808;3.422;2024-03-02T13:45:57;6.07;;;1.48;;
83659;SDS011;73632;50.808;3.422;2024-03-02T13:48:23;5.63;;;1.33;;
83659;SDS011;73632;50.808;3.422;2024-03-02T13:50:51;8.57;;;1.70;;
83659;SDS011;73632;50.808;3.422;2024-03-02T13:53:17;5.53;;;1.80;;
83659;SDS011;73632;50.808;3.422;2024-03-02T13:55:43;3.83;;;1.30;;
83659;SDS011;73632;50.808;3.422;2024-03-02T13:58:09;3.30;;;1.45;;
83659;SDS011;73632;50.808;3.422;2024-03-02T14:00:34;5.68;;;1.40;;
83659;SDS011;73632;50.808;3.422;2024-03-02T14:03:00;4.53;;;1.30;;
83659;SDS011;73632;50.808;3.422;2024-03-02T14:05:26;5.63;;;1.45;;
83659;SDS011;73632;50.808;3.422;2024-03-02T14:07:51;3.80;;;1.15;;
83659;SDS011;73632;50.808;3.422;2024-03-02T14:10:17;5.78;;;1.50;;
83659;SDS011;73632;50.808;3.422;2024-03-02T14:12:47;6.45;;;1.40;;
83659;SDS011;73632;50.808;3.422;2024-03-02T14:15:12;8.35;;;1.38;;
83659;SDS011;73632;50.808;3.422;2024-03-02T14:17:38;7.20;;;1.35;;
83659;SDS011;73632;50.808;3.422;2024-03-02T14:20:04;5.68;;;1.20;;
83659;SDS011;73632;50.808;3.422;2024-03-02T14:22:30;6.43;;;1.27;;
83659;SDS011;73632;50.808;3.422;2024-03-02T14:24:56;6.22;;;1.38;;
83659;SDS011;73632;50.808;3.422;2024-03-02T14:27:22;3.72;;;1.10;;
83659;SDS011;73632;50.808;3.422;2024-03-02T14:29:47;6.15;;;1.40;;
83659;SDS011;73632;50.808;3.422;2024-03-02T14:32:13;4.53;;;1.20;;
83659;SDS011;73632;50.808;3.422;2024-03-02T14:34:39;4.88;;;1.52;;
83659;SDS011;73632;50.808;3.422;2024-03-02T14:37:04;8.93;;;1.98;;
83659;SDS011;73632;50.808;3.422;2024-03-02T14:39:30;6.20;;;1.48;;
83659;SDS011;73632;50.808;3.422;2024-03-02T14:41:59;6.00;;;1.33;;
83659;SDS011;73632;50.808;3.422;2024-03-02T14:44:25;3.83;;;1.17;;
83659;SDS011;73632;50.808;3.422;2024-03-02T14:46:51;5.13;;;1.20;;